sensor_id;sensor_type;location;lat;lon;timestamp;pressure;altitude;pressure_sealevel;temperature;humidity
5812;BME280;2932;52.400;9.558;2023-11-21T00:02:02;100340.59;;;10.43;87.21
5812;BME280;2932;52.400;9.558;2023-11-21T00:04:29;100342.41;;;10.23;86.55
5812;BME280;2932;52.400;9.558;2023-11-21T00:06:54;100352.06;;;10.17;86.95
5812;BME280;2932;52.400;9.558;2023-11-21T00:09:19;100350.34;;;10.13;87.01
5812;BME280;2932;52.400;9.558;2023-11-21T00:11:45;100349.22;;;10.01;87.46
5812;BME280;2932;52.400;9.558;2023-11-21T00:14:11;100346.34;;;10.10;87.55
5812;BME280;2932;52.400;9.558;2023-11-21T00:16:36;100349.00;;;10.07;87.51
5812;BME280;2932;52.400;9.558;2023-11-21T00:19:02;100346.81;;;10.00;87.48
5812;BME280;2932;52.400;9.558;2023-11-21T00:21:27;100352.22;;;10.21;87.57
5812;BME280;2932;52.400;9.558;2023-11-21T00:23:52;100342.88;;;10.25;87.27
5812;BME280;2932;52.400;9.558;2023-11-21T00:26:18;100354.97;;;10.21;86.96
5812;BME280;2932;52.400;9.558;2023-11-21T00:28:43;100344.94;;;10.16;87.02
5812;BME280;2932;52.400;9.558;2023-11-21T00:31:08;100348.16;;;10.18;87.00
5812;BME280;2932;52.400;9.558;2023-11-21T00:33:34;100350.72;;;10.11;87.28
5812;BME280;2932;52.400;9.558;2023-11-21T00:35:59;100349.44;;;10.09;87.38
5812;BME280;2932;52.400;9.558;2023-11-21T00:38:26;100346.00;;;10.12;87.26
5812;BME280;2932;52.400;9.558;2023-11-21T00:40:52;100352.88;;;10.30;86.84
5812;BME280;2932;52.400;9.558;2023-11-21T00:43:21;100355.44;;;10.23;86.87
5812;BME280;2932;52.400;9.558;2023-11-21T00:45:46;100365.34;;;10.12;87.15
5812;BME280;2932;52.400;9.558;2023-11-21T00:48:14;100367.81;;;9.89;87.51
5812;BME280;2932;52.400;9.558;2023-11-21T00:50:39;100366.06;;;9.96;88.13
5812;BME280;2932;52.400;9.558;2023-11-21T00:53:04;100368.22;;;10.03;88.19
5812;BME280;2932;52.400;9.558;2023-11-21T00:55:30;100374.44;;;10.00;87.96
5812;BME280;2932;52.400;9.558;2023-11-21T00:57:55;100371.25;;;9.98;87.98
5812;BME280;2932;52.400;9.558;2023-11-21T01:00:20;100366.88;;;9.97;88.25
5812;BME280;2932;52.400;9.558;2023-11-21T01:02:46;100373.09;;;9.82;88.78
5812;BME280;2932;52.400;9.558;2023-11-21T01:05:12;100379.56;;;9.86;88.78
5812;BME280;2932;52.400;9.558;2023-11-21T01:07:38;100374.50;;;9.88;89.08
5812;BME280;2932;52.400;9.558;2023-11-21T01:10:03;100377.72;;;9.78;89.28
5812;BME280;2932;52.400;9.558;2023-11-21T01:12:34;100374.03;;;9.86;89.50
5812;BME280;2932;52.400;9.558;2023-11-21T01:14:59;100385.44;;;9.84;89.14
5812;BME280;2932;52.400;9.558;2023-11-21T01:17:26;100390.50;;;9.82;89.26
5812;BME280;2932;52.400;9.558;2023-11-21T01:19:51;100387.97;;;9.65;89.44
5812;BME280;2932;52.400;9.558;2023-11-21T01:22:16;100396.47;;;9.72;89.75
5812;BME280;2932;52.400;9.558;2023-11-21T01:24:47;100391.66;;;9.81;89.75
5812;BME280;2932;52.400;9.558;2023-11-21T01:27:12;100399.13;;;9.81;89.63
5812;BME280;2932;52.400;9.558;2023-11-21T01:29:38;100392.44;;;9.94;89.57
5812;BME280;2932;52.400;9.558;2023-11-21T01:32:03;100395.91;;;9.91;89.20
5812;BME280;2932;52.400;9.558;2023-11-21T01:34:29;100405.91;;;9.95;89.21
5812;BME280;2932;52.400;9.558;2023-11-21T01:36:54;100406.97;;;9.91;89.14
5812;BME280;2932;52.400;9.558;2023-11-21T01:39:19;100408.00;;;9.86;89.17
5812;BME280;2932;52.400;9.558;2023-11-21T01:41:51;100400.84;;;9.85;89.41
5812;BME280;2932;52.400;9.558;2023-11-21T01:44:17;100399.25;;;9.84;89.63
5812;BME280;2932;52.400;9.558;2023-11-21T01:46:45;100402.00;;;9.96;89.88
5812;BME280;2932;52.400;9.558;2023-11-21T01:49:10;100404.44;;;9.98;89.48
5812;BME280;2932;52.400;9.558;2023-11-21T01:51:39;100403.03;;;9.92;89.38
5812;BME280;2932;52.400;9.558;2023-11-21T01:54:04;100400.28;;;9.92;89.64
5812;BME280;2932;52.400;9.558;2023-11-21T01:56:31;100396.81;;;9.95;89.76
5812;BME280;2932;52.400;9.558;2023-11-21T01:58:57;100404.19;;;9.91;89.56
5812;BME280;2932;52.400;9.558;2023-11-21T02:01:23;100397.63;;;9.83;89.81
5812;BME280;2932;52.400;9.558;2023-11-21T02:03:48;100396.03;;;9.82;90.01
5812;BME280;2932;52.400;9.558;2023-11-21T02:06:13;100397.06;;;9.78;90.15
5812;BME280;2932;52.400;9.558;2023-11-21T02:08:39;100397.75;;;9.75;90.58
5812;BME280;2932;52.400;9.558;2023-11-21T02:11:05;100401.66;;;9.74;90.81
5812;BME280;2932;52.400;9.558;2023-11-21T02:13:31;100405.91;;;9.71;90.98
5812;BME280;2932;52.400;9.558;2023-11-21T02:15:57;100410.19;;;9.81;91.18
5812;BME280;2932;52.400;9.558;2023-11-21T02:18:23;100405.66;;;10.00;91.28
5812;BME280;2932;52.400;9.558;2023-11-21T02:20:48;100403.69;;;10.13;90.67
5812;BME280;2932;52.400;9.558;2023-11-21T02:23:14;100412.91;;;10.05;90.25
5812;BME280;2932;52.400;9.558;2023-11-21T02:25:39;100411.28;;;10.16;89.87
5812;BME280;2932;52.400;9.558;2023-11-21T02:28:05;100414.53;;;10.30;89.22
5812;BME280;2932;52.400;9.558;2023-11-21T02:30:31;100423.41;;;10.24;88.88
5812;BME280;2932;52.400;9.558;2023-11-21T02:32:57;100419.13;;;10.14;89.03
5812;BME280;2932;52.400;9.558;2023-11-21T02:35:23;100415.91;;;10.12;89.08
5812;BME280;2932;52.400;9.558;2023-11-21T02:37:51;100420.06;;;10.06;89.19
5812;BME280;2932;52.400;9.558;2023-11-21T02:40:16;100419.47;;;10.13;89.40
5812;BME280;2932;52.400;9.558;2023-11-21T02:42:50;100425.13;;;10.04;89.54
5812;BME280;2932;52.400;9.558;2023-11-21T02:45:16;100425.59;;;9.94;89.84
5812;BME280;2932;52.400;9.558;2023-11-21T02:47:43;100428.94;;;9.87;90.08
5812;BME280;2932;52.400;9.558;2023-11-21T02:50:09;100429.53;;;9.93;90.37
5812;BME280;2932;52.400;9.558;2023-11-21T02:52:35;100430.28;;;10.06;90.50
5812;BME280;2932;52.400;9.558;2023-11-21T02:55:03;100426.84;;;10.09;90.55
5812;BME280;2932;52.400;9.558;2023-11-21T02:57:29;100427.19;;;10.07;90.36
5812;BME280;2932;52.400;9.558;2023-11-21T02:59:55;100424.81;;;9.93;90.29
5812;BME280;2932;52.400;9.558;2023-11-21T03:02:20;100435.97;;;9.97;90.52
5812;BME280;2932;52.400;9.558;2023-11-21T03:04:46;100437.25;;;9.99;90.73
5812;BME280;2932;52.400;9.558;2023-11-21T03:07:13;100435.84;;;9.93;90.83
5812;BME280;2932;52.400;9.558;2023-11-21T03:09:38;100444.16;;;9.93;91.05
5812;BME280;2932;52.400;9.558;2023-11-21T03:12:04;100451.16;;;9.79;91.23
5812;BME280;2932;52.400;9.558;2023-11-21T03:14:30;100442.06;;;9.90;91.86
5812;BME280;2932;52.400;9.558;2023-11-21T03:16:55;100450.03;;;9.92;91.45
5812;BME280;2932;52.400;9.558;2023-11-21T03:19:20;100447.22;;;10.04;91.32
5812;BME280;2932;52.400;9.558;2023-11-21T03:21:46;100448.50;;;10.19;91.10
5812;BME280;2932;52.400;9.558;2023-11-21T03:24:12;100459.69;;;10.22;90.61
5812;BME280;2932;52.400;9.558;2023-11-21T03:26:37;100451.59;;;10.17;90.55
5812;BME280;2932;52.400;9.558;2023-11-21T03:29:03;100458.75;;;10.18;90.63
5812;BME280;2932;52.400;9.558;2023-11-21T03:31:30;100460.81;;;10.09;90.75
5812;BME280;2932;52.400;9.558;2023-11-21T03:33:55;100464.72;;;10.08;90.89
5812;BME280;2932;52.400;9.558;2023-11-21T03:36:20;100469.81;;;9.94;91.46
5812;BME280;2932;52.400;9.558;2023-11-21T03:38:48;100472.44;;;10.02;91.79
5812;BME280;2932;52.400;9.558;2023-11-21T03:41:13;100474.19;;;10.07;91.92
5812;BME280;2932;52.400;9.558;2023-11-21T03:43:39;100479.38;;;9.96;92.29
5812;BME280;2932;52.400;9.558;2023-11-21T03:46:05;100475.56;;;10.01;92.49
5812;BME280;2932;52.400;9.558;2023-11-21T03:48:30;100476.84;;;9.91;92.57
5812;BME280;2932;52.400;9.558;2023-11-21T03:50:57;100478.91;;;10.07;92.77
5812;BME280;2932;52.400;9.558;2023-11-21T03:53:22;100481.78;;;10.10;92.57
5812;BME280;2932;52.400;9.558;2023-11-21T03:55:48;100486.50;;;10.10;92.64
5812;BME280;2932;52.400;9.558;2023-11-21T03:58:14;100487.53;;;10.17;92.33
5812;BME280;2932;52.400;9.558;2023-11-21T04:00:39;100480.88;;;10.18;92.44
5812;BME280;2932;52.400;9.558;2023-11-21T04:03:05;100489.75;;;9.99;92.40
5812;BME280;2932;52.400;9.558;2023-11-21T04:05:30;100486.03;;;10.08;92.60
5812;BME280;2932;52.400;9.558;2023-11-21T04:07:56;100486.28;;;10.02;92.55
5812;BME280;2932;52.400;9.558;2023-11-21T04:10:21;100495.84;;;9.93;93.35
5812;BME280;2932;52.400;9.558;2023-11-21T04:12:47;100495.59;;;9.86;93.41
5812;BME280;2932;52.400;9.558;2023-11-21T04:15:13;100505.28;;;9.80;93.37
5812;BME280;2932;52.400;9.558;2023-11-21T04:17:40;100503.09;;;10.10;93.66
5812;BME280;2932;52.400;9.558;2023-11-21T04:20:06;100503.09;;;9.97;93.53
5812;BME280;2932;52.400;9.558;2023-11-21T04:22:36;100513.25;;;9.93;93.92
5812;BME280;2932;52.400;9.558;2023-11-21T04:25:01;100510.56;;;9.85;94.05
5812;BME280;2932;52.400;9.558;2023-11-21T04:27:27;100523.78;;;9.67;94.35
5812;BME280;2932;52.400;9.558;2023-11-21T04:29:52;100529.44;;;9.83;94.80
5812;BME280;2932;52.400;9.558;2023-11-21T04:32:17;100527.97;;;9.85;94.92
5812;BME280;2932;52.400;9.558;2023-11-21T04:34:43;100530.97;;;9.92;94.96
5812;BME280;2932;52.400;9.558;2023-11-21T04:37:08;100527.88;;;9.94;94.89
5812;BME280;2932;52.400;9.558;2023-11-21T04:39:35;100532.69;;;9.97;94.86
5812;BME280;2932;52.400;9.558;2023-11-21T04:42:01;100542.59;;;9.86;94.87
5812;BME280;2932;52.400;9.558;2023-11-21T04:44:26;100541.88;;;9.77;94.69
5812;BME280;2932;52.400;9.558;2023-11-21T04:46:51;100553.47;;;9.70;95.29
5812;BME280;2932;52.400;9.558;2023-11-21T04:49:16;100547.28;;;9.73;95.46
5812;BME280;2932;52.400;9.558;2023-11-21T04:51:42;100552.38;;;9.83;95.52
5812;BME280;2932;52.400;9.558;2023-11-21T04:54:07;100552.38;;;9.83;95.45
5812;BME280;2932;52.400;9.558;2023-11-21T04:56:32;100561.31;;;9.68;95.39
5812;BME280;2932;52.400;9.558;2023-11-21T04:58:58;100557.44;;;9.81;95.40
5812;BME280;2932;52.400;9.558;2023-11-21T05:01:23;100562.16;;;9.81;95.14
5812;BME280;2932;52.400;9.558;2023-11-21T05:03:48;100563.56;;;9.99;95.31
5812;BME280;2932;52.400;9.558;2023-11-21T05:06:14;100563.66;;;9.90;95.23
5812;BME280;2932;52.400;9.558;2023-11-21T05:08:39;100567.91;;;10.00;94.88
5812;BME280;2932;52.400;9.558;2023-11-21T05:11:05;100567.00;;;9.84;95.11
5812;BME280;2932;52.400;9.558;2023-11-21T05:13:34;100567.69;;;9.93;95.14
5812;BME280;2932;52.400;9.558;2023-11-21T05:15:59;100577.69;;;9.85;95.35
5812;BME280;2932;52.400;9.558;2023-11-21T05:18:24;100563.56;;;9.99;95.29
5812;BME280;2932;52.400;9.558;2023-11-21T05:20:55;100569.59;;;10.25;94.63
5812;BME280;2932;52.400;9.558;2023-11-21T05:23:20;100565.09;;;10.57;93.97
5812;BME280;2932;52.400;9.558;2023-11-21T05:25:45;100569.56;;;10.74;93.32
5812;BME280;2932;52.400;9.558;2023-11-21T05:28:11;100571.72;;;10.81;92.87
5812;BME280;2932;52.400;9.558;2023-11-21T05:30:39;100574.81;;;10.91;92.53
5812;BME280;2932;52.400;9.558;2023-11-21T05:33:05;100572.28;;;10.98;92.32
5812;BME280;2932;52.400;9.558;2023-11-21T05:35:30;100577.59;;;10.91;91.60
5812;BME280;2932;52.400;9.558;2023-11-21T05:37:56;100585.78;;;10.88;91.25
5812;BME280;2932;52.400;9.558;2023-11-21T05:40:22;100586.97;;;10.75;90.86
5812;BME280;2932;52.400;9.558;2023-11-21T05:42:47;100588.59;;;10.76;91.05
5812;BME280;2932;52.400;9.558;2023-11-21T05:45:13;100599.66;;;10.76;91.00
5812;BME280;2932;52.400;9.558;2023-11-21T05:47:40;100588.31;;;10.93;91.23
5812;BME280;2932;52.400;9.558;2023-11-21T05:50:06;100597.75;;;11.04;91.24
5812;BME280;2932;52.400;9.558;2023-11-21T05:52:36;100602.66;;;11.23;90.90
5812;BME280;2932;52.400;9.558;2023-11-21T05:55:02;100605.38;;;11.35;90.28
5812;BME280;2932;52.400;9.558;2023-11-21T05:57:27;100610.22;;;11.38;89.60
5812;BME280;2932;52.400;9.558;2023-11-21T05:59:53;100604.09;;;11.45;89.15
5812;BME280;2932;52.400;9.558;2023-11-21T06:02:18;100603.38;;;11.48;88.96
5812;BME280;2932;52.400;9.558;2023-11-21T06:04:44;100603.50;;;11.51;88.88
5812;BME280;2932;52.400;9.558;2023-11-21T06:07:09;100610.19;;;11.50;88.33
5812;BME280;2932;52.400;9.558;2023-11-21T06:09:35;100615.66;;;11.62;88.24
5812;BME280;2932;52.400;9.558;2023-11-21T06:12:00;100616.81;;;11.61;87.96
5812;BME280;2932;52.400;9.558;2023-11-21T06:14:26;100623.34;;;11.53;87.96
5812;BME280;2932;52.400;9.558;2023-11-21T06:16:51;100624.28;;;11.45;88.21
5812;BME280;2932;52.400;9.558;2023-11-21T06:19:17;100628.47;;;11.39;88.43
5812;BME280;2932;52.400;9.558;2023-11-21T06:21:45;100636.50;;;11.56;88.31
5812;BME280;2932;52.400;9.558;2023-11-21T06:24:11;100634.72;;;11.64;88.12
5812;BME280;2932;52.400;9.558;2023-11-21T06:26:37;100642.50;;;11.58;87.67
5812;BME280;2932;52.400;9.558;2023-11-21T06:29:02;100640.94;;;11.61;87.43
5812;BME280;2932;52.400;9.558;2023-11-21T06:31:28;100643.09;;;11.52;87.57
5812;BME280;2932;52.400;9.558;2023-11-21T06:33:54;100648.06;;;11.46;87.74
5812;BME280;2932;52.400;9.558;2023-11-21T06:36:19;100654.97;;;11.52;87.75
5812;BME280;2932;52.400;9.558;2023-11-21T06:38:44;100662.84;;;11.50;87.37
5812;BME280;2932;52.400;9.558;2023-11-21T06:41:11;100663.53;;;11.47;87.54
5812;BME280;2932;52.400;9.558;2023-11-21T06:43:39;100674.03;;;11.54;87.44
5812;BME280;2932;52.400;9.558;2023-11-21T06:46:04;100668.59;;;11.57;87.36
5812;BME280;2932;52.400;9.558;2023-11-21T06:48:29;100684.66;;;11.52;87.40
5812;BME280;2932;52.400;9.558;2023-11-21T06:50:55;100686.63;;;11.51;87.37
5812;BME280;2932;52.400;9.558;2023-11-21T06:53:20;100700.81;;;11.50;87.31
5812;BME280;2932;52.400;9.558;2023-11-21T06:55:45;100695.13;;;11.58;87.21
5812;BME280;2932;52.400;9.558;2023-11-21T06:58:11;100710.19;;;11.45;87.27
5812;BME280;2932;52.400;9.558;2023-11-21T07:00:36;100706.28;;;11.22;86.80
5812;BME280;2932;52.400;9.558;2023-11-21T07:03:02;100719.66;;;11.20;86.32
5812;BME280;2932;52.400;9.558;2023-11-21T07:05:27;100730.03;;;11.23;85.82
5812;BME280;2932;52.400;9.558;2023-11-21T07:07:52;100743.69;;;11.16;85.29
5812;BME280;2932;52.400;9.558;2023-11-21T07:10:19;100744.16;;;11.18;84.21
5812;BME280;2932;52.400;9.558;2023-11-21T07:12:44;100750.13;;;11.32;84.08
5812;BME280;2932;52.400;9.558;2023-11-21T07:15:10;100757.84;;;11.39;83.09
5812;BME280;2932;52.400;9.558;2023-11-21T07:17:36;100753.25;;;11.30;82.40
5812;BME280;2932;52.400;9.558;2023-11-21T07:20:02;100753.59;;;11.29;82.09
5812;BME280;2932;52.400;9.558;2023-11-21T07:22:28;100758.56;;;11.23;82.01
5812;BME280;2932;52.400;9.558;2023-11-21T07:24:53;100761.09;;;11.28;81.76
5812;BME280;2932;52.400;9.558;2023-11-21T07:27:18;100769.75;;;11.27;81.74
5812;BME280;2932;52.400;9.558;2023-11-21T07:29:44;100760.97;;;11.25;81.98
5812;BME280;2932;52.400;9.558;2023-11-21T07:32:10;100766.28;;;11.30;81.61
5812;BME280;2932;52.400;9.558;2023-11-21T07:34:36;100778.75;;;11.24;81.84
5812;BME280;2932;52.400;9.558;2023-11-21T07:37:02;100791.22;;;11.06;81.59
5812;BME280;2932;52.400;9.558;2023-11-21T07:39:28;100789.34;;;10.73;81.96
5812;BME280;2932;52.400;9.558;2023-11-21T07:41:53;100803.97;;;10.74;82.57
5812;BME280;2932;52.400;9.558;2023-11-21T07:44:19;100801.34;;;10.77;82.41
5812;BME280;2932;52.400;9.558;2023-11-21T07:46:45;100798.97;;;10.55;82.12
5812;BME280;2932;52.400;9.558;2023-11-21T07:49:11;100807.13;;;10.39;82.41
5812;BME280;2932;52.400;9.558;2023-11-21T07:51:36;100813.53;;;10.31;82.40
5812;BME280;2932;52.400;9.558;2023-11-21T07:54:01;100819.06;;;10.31;82.68
5812;BME280;2932;52.400;9.558;2023-11-21T07:56:26;100823.19;;;10.25;83.04
5812;BME280;2932;52.400;9.558;2023-11-21T07:58:52;100831.97;;;10.18;82.80
5812;BME280;2932;52.400;9.558;2023-11-21T08:01:17;100839.00;;;10.16;82.89
5812;BME280;2932;52.400;9.558;2023-11-21T08:03:43;100838.81;;;10.21;83.02
5812;BME280;2932;52.400;9.558;2023-11-21T08:06:09;100845.03;;;10.39;83.25
5812;BME280;2932;52.400;9.558;2023-11-21T08:08:34;100844.25;;;10.50;83.09
5812;BME280;2932;52.400;9.558;2023-11-21T08:11:00;100851.47;;;10.43;82.49
5812;BME280;2932;52.400;9.558;2023-11-21T08:13:27;100852.84;;;10.37;82.51
5812;BME280;2932;52.400;9.558;2023-11-21T08:15:56;100859.66;;;10.39;82.36
5812;BME280;2932;52.400;9.558;2023-11-21T08:18:26;100861.84;;;10.46;82.20
5812;BME280;2932;52.400;9.558;2023-11-21T08:20:51;100870.25;;;10.37;82.33
5812;BME280;2932;52.400;9.558;2023-11-21T08:23:17;100871.44;;;10.48;82.04
5812;BME280;2932;52.400;9.558;2023-11-21T08:25:45;100874.88;;;10.66;81.98
5812;BME280;2932;52.400;9.558;2023-11-21T08:28:12;100869.94;;;10.72;81.47
5812;BME280;2932;52.400;9.558;2023-11-21T08:30:39;100883.09;;;10.87;81.02
5812;BME280;2932;52.400;9.558;2023-11-21T08:33:07;100881.00;;;10.72;80.81
5812;BME280;2932;52.400;9.558;2023-11-21T08:35:33;100876.81;;;10.65;80.13
5812;BME280;2932;52.400;9.558;2023-11-21T08:37:59;100877.09;;;10.73;80.14
5812;BME280;2932;52.400;9.558;2023-11-21T08:40:24;100886.78;;;10.79;79.44
5812;BME280;2932;52.400;9.558;2023-11-21T08:42:50;100872.16;;;10.78;78.74
5812;BME280;2932;52.400;9.558;2023-11-21T08:45:18;100878.84;;;10.89;78.69
5812;BME280;2932;52.400;9.558;2023-11-21T08:47:44;100883.44;;;10.85;77.85
5812;BME280;2932;52.400;9.558;2023-11-21T08:50:09;100889.50;;;10.66;77.87
5812;BME280;2932;52.400;9.558;2023-11-21T08:52:37;100901.03;;;10.68;77.86
5812;BME280;2932;52.400;9.558;2023-11-21T08:55:03;100904.91;;;10.55;78.16
5812;BME280;2932;52.400;9.558;2023-11-21T08:57:33;100906.50;;;10.77;78.43
5812;BME280;2932;52.400;9.558;2023-11-21T08:59:59;100910.56;;;10.92;78.53
5812;BME280;2932;52.400;9.558;2023-11-21T09:02:28;100915.00;;;11.05;77.61
5812;BME280;2932;52.400;9.558;2023-11-21T09:04:53;100927.78;;;10.97;76.64
5812;BME280;2932;52.400;9.558;2023-11-21T09:07:19;100929.44;;;11.11;77.01
5812;BME280;2932;52.400;9.558;2023-11-21T09:09:48;100930.72;;;11.13;76.60
5812;BME280;2932;52.400;9.558;2023-11-21T09:12:15;100941.66;;;11.10;76.13
5812;BME280;2932;52.400;9.558;2023-11-21T09:14:41;100937.66;;;10.86;75.75
5812;BME280;2932;52.400;9.558;2023-11-21T09:17:08;100944.13;;;10.90;76.05
5812;BME280;2932;52.400;9.558;2023-11-21T09:19:38;100953.28;;;11.03;76.32
5812;BME280;2932;52.400;9.558;2023-11-21T09:22:04;100955.94;;;10.99;76.05
5812;BME280;2932;52.400;9.558;2023-11-21T09:24:33;100955.53;;;11.10;76.27
5812;BME280;2932;52.400;9.558;2023-11-21T09:26:58;100965.25;;;11.28;76.18
5812;BME280;2932;52.400;9.558;2023-11-21T09:29:25;100966.78;;;11.38;75.18
5812;BME280;2932;52.400;9.558;2023-11-21T09:31:51;100970.13;;;11.43;74.45
5812;BME280;2932;52.400;9.558;2023-11-21T09:34:16;100977.81;;;11.25;73.85
5812;BME280;2932;52.400;9.558;2023-11-21T09:36:45;100980.34;;;11.18;73.98
5812;BME280;2932;52.400;9.558;2023-11-21T09:39:11;100994.53;;;11.17;73.64
5812;BME280;2932;52.400;9.558;2023-11-21T09:41:51;100998.22;;;11.21;73.97
5812;BME280;2932;52.400;9.558;2023-11-21T09:44:23;100996.97;;;11.18;73.96
5812;BME280;2932;52.400;9.558;2023-11-21T09:46:56;101001.22;;;11.16;73.96
5812;BME280;2932;52.400;9.558;2023-11-21T09:49:26;101005.72;;;11.20;74.32
5812;BME280;2932;52.400;9.558;2023-11-21T09:51:54;101003.41;;;11.10;74.04
5812;BME280;2932;52.400;9.558;2023-11-21T09:54:20;101009.47;;;11.03;74.31
5812;BME280;2932;52.400;9.558;2023-11-21T09:56:47;101016.44;;;11.10;74.44
5812;BME280;2932;52.400;9.558;2023-11-21T09:59:14;101017.44;;;11.05;74.46
5812;BME280;2932;52.400;9.558;2023-11-21T10:01:41;101023.28;;;11.24;74.40
5812;BME280;2932;52.400;9.558;2023-11-21T10:04:07;101027.13;;;11.32;74.43
5812;BME280;2932;52.400;9.558;2023-11-21T10:06:38;101027.81;;;11.29;74.42
5812;BME280;2932;52.400;9.558;2023-11-21T10:09:04;101031.31;;;11.38;73.99
5812;BME280;2932;52.400;9.558;2023-11-21T10:11:39;101037.53;;;11.35;73.63
5812;BME280;2932;52.400;9.558;2023-11-21T10:14:10;101036.84;;;11.38;73.76
5812;BME280;2932;52.400;9.558;2023-11-21T10:16:38;101034.34;;;11.45;74.31
5812;BME280;2932;52.400;9.558;2023-11-21T10:19:04;101039.75;;;11.42;74.23
5812;BME280;2932;52.400;9.558;2023-11-21T10:21:32;101048.13;;;11.33;73.71
5812;BME280;2932;52.400;9.558;2023-11-21T10:23:58;101049.69;;;11.22;74.12
5812;BME280;2932;52.400;9.558;2023-11-21T10:26:26;101049.69;;;11.22;73.67
5812;BME280;2932;52.400;9.558;2023-11-21T10:28:59;101054.31;;;11.18;73.58
5812;BME280;2932;52.400;9.558;2023-11-21T10:31:31;101061.47;;;11.19;73.43
5812;BME280;2932;52.400;9.558;2023-11-21T10:36:45;101070.28;;;11.33;73.56
5812;BME280;2932;52.400;9.558;2023-11-21T10:39:16;101067.53;;;11.33;73.24
5812;BME280;2932;52.400;9.558;2023-11-21T10:41:48;101074.28;;;11.44;73.29
5812;BME280;2932;52.400;9.558;2023-11-21T10:44:14;101075.16;;;11.36;73.50
5812;BME280;2932;52.400;9.558;2023-11-21T10:46:48;101081.56;;;11.28;73.77
5812;BME280;2932;52.400;9.558;2023-11-21T10:49:17;101086.03;;;11.20;73.40
5812;BME280;2932;52.400;9.558;2023-11-21T10:51:48;101083.06;;;11.25;73.46
5812;BME280;2932;52.400;9.558;2023-11-21T10:54:20;101091.13;;;11.18;73.32
5812;BME280;2932;52.400;9.558;2023-11-21T10:56:48;101088.69;;;11.17;73.22
5812;BME280;2932;52.400;9.558;2023-11-21T10:59:17;101086.78;;;11.29;73.24
5812;BME280;2932;52.400;9.558;2023-11-21T11:01:44;101082.06;;;11.30;73.13
5812;BME280;2932;52.400;9.558;2023-11-21T11:04:11;101087.03;;;11.36;72.90
5812;BME280;2932;52.400;9.558;2023-11-21T11:06:49;101093.41;;;11.37;72.18
5812;BME280;2932;52.400;9.558;2023-11-21T11:09:17;101093.44;;;11.16;72.10
5812;BME280;2932;52.400;9.558;2023-11-21T11:11:42;101090.22;;;11.26;71.83
5812;BME280;2932;52.400;9.558;2023-11-21T11:14:13;101093.25;;;11.33;71.49
5812;BME280;2932;52.400;9.558;2023-11-21T11:16:40;101098.47;;;11.35;71.28
5812;BME280;2932;52.400;9.558;2023-11-21T11:19:09;101101.16;;;11.44;71.40
5812;BME280;2932;52.400;9.558;2023-11-21T11:33:04;101119.75;;;11.22;70.44
5812;BME280;2932;52.400;9.558;2023-11-21T11:35:46;101116.06;;;11.18;70.41
5812;BME280;2932;52.400;9.558;2023-11-21T11:38:16;101117.69;;;11.19;70.22
5812;BME280;2932;52.400;9.558;2023-11-21T11:40:45;101121.50;;;11.27;70.38
5812;BME280;2932;52.400;9.558;2023-11-21T11:43:11;101117.53;;;11.16;69.85
5812;BME280;2932;52.400;9.558;2023-11-21T11:45:37;101127.88;;;11.07;69.94
5812;BME280;2932;52.400;9.558;2023-11-21T11:48:06;101137.00;;;11.07;70.35
5812;BME280;2932;52.400;9.558;2023-11-21T11:50:32;101142.59;;;11.19;70.32
5812;BME280;2932;52.400;9.558;2023-11-21T11:53:12;101146.84;;;11.38;70.50
5812;BME280;2932;52.400;9.558;2023-11-21T11:55:38;101154.00;;;11.39;70.67
5812;BME280;2932;52.400;9.558;2023-11-21T11:58:05;101133.47;;;11.40;71.35
5812;BME280;2932;52.400;9.558;2023-11-21T12:00:35;101138.66;;;11.41;71.55
5812;BME280;2932;52.400;9.558;2023-11-21T12:03:03;101140.75;;;11.44;71.13
5812;BME280;2932;52.400;9.558;2023-11-21T12:05:31;101136.09;;;11.57;71.43
5812;BME280;2932;52.400;9.558;2023-11-21T12:08:00;101137.47;;;11.63;70.83
5812;BME280;2932;52.400;9.558;2023-11-21T12:10:27;101143.97;;;11.67;70.11
5812;BME280;2932;52.400;9.558;2023-11-21T12:13:13;101150.63;;;11.54;69.86
5812;BME280;2932;52.400;9.558;2023-11-21T12:15:39;101164.00;;;11.31;69.61
5812;BME280;2932;52.400;9.558;2023-11-21T12:18:07;101157.88;;;11.46;69.90
5812;BME280;2932;52.400;9.558;2023-11-21T12:20:32;101154.56;;;11.53;69.81
5812;BME280;2932;52.400;9.558;2023-11-21T12:23:03;101158.03;;;11.62;69.17
5812;BME280;2932;52.400;9.558;2023-11-21T12:25:30;101154.69;;;11.56;69.19
5812;BME280;2932;52.400;9.558;2023-11-21T12:27:57;101161.69;;;11.75;69.41
5812;BME280;2932;52.400;9.558;2023-11-21T12:30:30;101163.94;;;11.81;69.73
5812;BME280;2932;52.400;9.558;2023-11-21T12:32:58;101173.41;;;11.80;69.26
5812;BME280;2932;52.400;9.558;2023-11-21T12:35:25;101170.75;;;11.63;68.87
5812;BME280;2932;52.400;9.558;2023-11-21T12:37:52;101184.94;;;11.61;69.12
5812;BME280;2932;52.400;9.558;2023-11-21T12:40:19;101180.44;;;11.57;69.20
5812;BME280;2932;52.400;9.558;2023-11-21T12:42:45;101188.53;;;11.62;69.39
5812;BME280;2932;52.400;9.558;2023-11-21T12:48:08;101186.97;;;11.73;70.19
5812;BME280;2932;52.400;9.558;2023-11-21T12:50:37;101196.09;;;11.74;69.85
5812;BME280;2932;52.400;9.558;2023-11-21T12:53:11;101187.94;;;11.56;69.38
5812;BME280;2932;52.400;9.558;2023-11-21T12:55:43;101185.81;;;11.74;70.10
5812;BME280;2932;52.400;9.558;2023-11-21T12:58:15;101191.25;;;12.03;69.56
5812;BME280;2932;52.400;9.558;2023-11-21T13:00:47;101188.22;;;12.42;69.04
5812;BME280;2932;52.400;9.558;2023-11-21T13:03:14;101188.94;;;12.39;68.08
5812;BME280;2932;52.400;9.558;2023-11-21T13:05:46;101180.16;;;12.61;67.86
5812;BME280;2932;52.400;9.558;2023-11-21T13:08:15;101188.72;;;12.68;67.73
5812;BME280;2932;52.400;9.558;2023-11-21T13:10:45;101199.81;;;12.56;67.61
5812;BME280;2932;52.400;9.558;2023-11-21T13:13:13;101207.53;;;12.50;67.32
5812;BME280;2932;52.400;9.558;2023-11-21T13:18:26;101216.91;;;12.33;67.58
5812;BME280;2932;52.400;9.558;2023-11-21T13:20:53;101227.69;;;12.14;67.96
5812;BME280;2932;52.400;9.558;2023-11-21T13:23:20;101229.16;;;11.99;68.31
5812;BME280;2932;52.400;9.558;2023-11-21T13:25:45;101234.38;;;11.80;68.06
5812;BME280;2932;52.400;9.558;2023-11-21T13:28:12;101250.38;;;11.75;68.48
5812;BME280;2932;52.400;9.558;2023-11-21T13:30:40;101255.78;;;11.71;68.92